createdAt,value
2023-04-18T00:01:38.795Z,74.41
2023-04-18T00:04:10.724Z,74.59
2023-04-18T00:06:40.135Z,74.42
2023-04-18T00:09:08.862Z,74.68
2023-04-18T00:11:37.645Z,74.77
2023-04-18T00:14:06.464Z,74.60
2023-04-18T00:16:35.371Z,74.80
2023-04-18T00:19:05.166Z,74.73
2023-04-18T00:21:36.855Z,75.01
2023-04-18T00:24:06.233Z,74.86
2023-04-18T00:26:34.974Z,74.99
2023-04-18T00:29:04.462Z,74.76
2023-04-18T00:31:33.195Z,74.62
2023-04-18T00:34:02.099Z,75.00
2023-04-18T00:36:31.315Z,74.89
2023-04-18T00:39:01.506Z,75.10
2023-04-18T00:41:31.984Z,75.17
2023-04-18T00:44:00.885Z,75.55
2023-04-18T00:46:29.770Z,75.54
2023-04-18T00:48:58.811Z,75.75
2023-04-18T00:51:27.798Z,75.76
2023-04-18T00:53:57.184Z,76.08
2023-04-18T00:56:27.387Z,75.81
2023-04-18T00:58:56.185Z,76.32
2023-04-18T01:01:26.932Z,76.29
2023-04-18T01:03:56.388Z,76.18
2023-04-18T01:06:25.475Z,76.48
2023-04-18T01:08:58.192Z,76.19
2023-04-18T01:11:28.836Z,76.53
2023-04-18T01:14:01.902Z,76.97
2023-04-18T01:16:32.918Z,77.41
2023-04-18T01:19:02.195Z,77.60
2023-04-18T01:21:34.176Z,77.73
2023-04-18T01:24:10.512Z,77.70
2023-04-18T01:26:39.548Z,77.72
2023-04-18T01:29:08.355Z,77.55
2023-04-18T01:31:37.921Z,77.49
2023-04-18T01:34:07.272Z,77.43
2023-04-18T01:36:37.890Z,77.22
2023-04-18T01:39:08.226Z,77.78
2023-04-18T01:41:37.044Z,77.76
2023-04-18T01:44:06.436Z,77.68
2023-04-18T01:46:36.259Z,77.50
2023-04-18T01:49:05.346Z,78.03
2023-04-18T01:51:34.251Z,78.06
2023-04-18T01:54:02.897Z,77.72
2023-04-18T01:56:33.943Z,77.52
2023-04-18T01:59:04.516Z,77.95
2023-04-18T02:01:33.387Z,77.94
2023-04-18T02:04:02.155Z,77.63
2023-04-18T02:06:31.170Z,77.38
2023-04-18T02:09:03.101Z,77.75
2023-04-18T02:11:33.426Z,77.27
2023-04-18T02:14:05.019Z,77.72
2023-04-18T02:16:34.232Z,77.45
2023-04-18T02:19:04.623Z,77.10
2023-04-18T02:21:33.414Z,77.27
2023-04-18T02:24:02.119Z,77.06
2023-04-18T02:26:30.934Z,77.01
2023-04-18T02:29:01.144Z,76.92
2023-04-18T02:31:32.412Z,77.24
2023-04-18T02:34:01.272Z,76.79
2023-04-18T02:36:31.236Z,77.15
2023-04-18T02:39:00.159Z,77.34
2023-04-18T02:41:28.914Z,77.28
2023-04-18T02:43:58.276Z,77.45
2023-04-18T02:46:28.670Z,77.36
2023-04-18T02:48:58.482Z,77.38
2023-04-18T02:51:28.338Z,77.08
2023-04-18T02:53:59.779Z,76.84
2023-04-18T02:56:40.220Z,77.05
2023-04-18T02:59:21.488Z,76.73
2023-04-18T03:02:01.978Z,77.08
2023-04-18T03:04:31.089Z,77.39
2023-04-18T03:07:05.827Z,77.33
2023-04-18T03:09:38.249Z,77.00
2023-04-18T03:12:16.911Z,77.66
2023-04-18T03:14:45.818Z,77.43
2023-04-18T03:17:17.587Z,77.53
2023-04-18T03:19:50.265Z,77.40
2023-04-18T03:22:21.601Z,77.94
2023-04-18T03:24:56.021Z,78.30
2023-04-18T03:27:37.429Z,78.21
2023-04-18T03:30:08.057Z,78.22
2023-04-18T03:32:39.327Z,78.02
2023-04-18T03:35:08.541Z,77.84
2023-04-18T03:37:37.666Z,77.79
2023-04-18T03:40:11.286Z,78.00
2023-04-18T03:42:40.100Z,78.01
2023-04-18T03:45:10.000Z,78.28
2023-04-18T03:47:40.553Z,78.36
2023-04-18T03:50:10.497Z,77.97
2023-04-18T03:52:40.860Z,77.67
2023-04-18T03:55:11.537Z,77.63
2023-04-18T03:57:41.444Z,78.10
2023-04-18T04:00:16.210Z,78.14
2023-04-18T04:02:46.190Z,77.88
2023-04-18T04:05:21.811Z,77.67
2023-04-18T04:07:52.663Z,77.73
2023-04-18T04:10:21.744Z,78.11
2023-04-18T04:12:51.760Z,77.65
2023-04-18T04:15:20.955Z,78.07
2023-04-18T04:18:11.652Z,78.24
2023-04-18T04:20:43.733Z,78.29
2023-04-18T04:23:16.295Z,78.11
2023-04-18T04:25:48.304Z,78.34
2023-04-18T04:28:32.055Z,78.08
2023-04-18T04:31:08.594Z,77.95
2023-04-18T04:33:40.072Z,77.86
2023-04-18T04:36:18.846Z,78.20
2023-04-18T04:38:50.133Z,78.48
2023-04-18T04:41:21.075Z,78.16
2023-04-18T04:43:51.572Z,78.23
2023-04-18T04:46:24.685Z,78.33
2023-04-18T04:48:55.164Z,78.36
2023-04-18T04:51:24.239Z,78.32
2023-04-18T04:53:53.133Z,78.12
2023-04-18T04:56:23.230Z,78.33
2023-04-18T04:58:53.235Z,78.37
2023-04-18T05:01:28.382Z,78.20
2023-04-18T05:03:58.776Z,77.88
2023-04-18T05:06:27.749Z,77.88
2023-04-18T05:08:58.024Z,78.08
2023-04-18T05:11:26.784Z,77.84
2023-04-18T05:13:55.508Z,77.71
2023-04-18T05:16:24.536Z,77.39
2023-04-18T05:18:53.351Z,77.36
2023-04-18T05:21:24.900Z,77.58
2023-04-18T05:23:54.069Z,77.51
2023-04-18T05:26:22.925Z,77.44
2023-04-18T05:28:52.272Z,77.32
2023-04-18T05:31:21.142Z,77.13
2023-04-18T05:33:49.932Z,77.01
2023-04-18T05:36:18.742Z,77.17
2023-04-18T05:38:49.443Z,77.22
2023-04-18T05:41:18.394Z,76.69
2023-04-18T05:43:58.213Z,76.80
2023-04-18T05:46:34.361Z,76.36
2023-04-18T05:49:03.721Z,76.25
2023-04-18T05:51:32.620Z,76.13
2023-04-18T05:54:03.444Z,76.01
2023-04-18T05:56:32.285Z,75.94
2023-04-18T05:59:01.036Z,75.39
2023-04-18T06:01:29.866Z,74.87
2023-04-18T06:03:58.772Z,74.63
2023-04-18T06:06:27.836Z,74.62
2023-04-18T06:08:56.511Z,74.34
2023-04-18T06:11:26.725Z,73.99
2023-04-18T06:13:56.274Z,73.37
2023-04-18T06:16:25.056Z,72.93
2023-04-18T06:18:55.399Z,72.78
2023-04-18T06:21:24.286Z,72.73
2023-04-18T06:23:52.952Z,72.58
2023-04-18T06:26:21.808Z,72.44
2023-04-18T06:28:51.875Z,72.40
2023-04-18T06:31:20.814Z,72.01
2023-04-18T06:33:49.598Z,71.95
2023-04-18T06:36:18.953Z,71.67
2023-04-18T06:38:47.512Z,71.00
2023-04-18T06:41:16.598Z,70.30
2023-04-18T06:44:01.559Z,70.42
2023-04-18T06:46:34.219Z,69.90
2023-04-18T06:49:02.954Z,69.19
2023-04-18T06:51:31.751Z,68.98
2023-04-18T06:54:01.138Z,69.23
2023-04-18T06:56:29.843Z,68.96
2023-04-18T06:58:58.567Z,68.96
2023-04-18T07:01:27.352Z,68.92
2023-04-18T07:03:57.672Z,68.54
2023-04-18T07:06:27.166Z,68.51
2023-04-18T07:09:00.214Z,68.22
2023-04-18T07:11:29.567Z,67.93
2023-04-18T07:13:58.708Z,67.66
2023-04-18T07:16:27.460Z,67.19
2023-04-18T07:18:57.741Z,67.10
2023-04-18T07:21:26.581Z,66.97
2023-04-18T07:23:55.496Z,67.13
2023-04-18T07:26:24.281Z,66.62
2023-04-18T07:28:53.011Z,66.81
2023-04-18T07:31:21.714Z,67.03
2023-04-18T07:33:50.625Z,67.54
2023-04-18T07:36:20.721Z,67.59
2023-04-18T07:38:49.590Z,67.48
2023-04-18T07:41:18.268Z,67.61
2023-04-18T07:43:47.081Z,67.95
2023-04-18T07:46:15.919Z,68.05
2023-04-18T07:48:44.825Z,68.05
2023-04-18T07:51:13.597Z,67.42
2023-04-18T07:53:45.106Z,67.17
2023-04-18T07:56:14.657Z,67.50
2023-04-18T07:58:43.483Z,67.63
2023-04-18T08:01:14.554Z,67.96
2023-04-18T08:03:43.783Z,67.83
2023-04-18T08:06:12.580Z,68.29
2023-04-18T08:08:41.489Z,68.60
2023-04-18T08:11:11.739Z,69.06
2023-04-18T08:13:40.583Z,69.29
2023-04-18T08:16:09.334Z,69.02
2023-04-18T08:18:38.617Z,69.59
2023-04-18T08:21:07.781Z,69.08
2023-04-18T08:23:36.537Z,69.40
2023-04-18T08:26:05.333Z,69.47
2023-04-18T08:28:35.544Z,69.89
2023-04-18T08:31:04.364Z,69.48
2023-04-18T08:33:33.265Z,69.39
2023-04-18T08:36:01.903Z,69.27
2023-04-18T08:38:30.993Z,69.26
2023-04-18T08:40:59.804Z,68.93
2023-04-18T08:43:30.674Z,69.23
2023-04-18T08:46:02.182Z,68.87
2023-04-18T08:48:31.620Z,69.09
2023-04-18T08:51:02.539Z,68.82
2023-04-18T08:53:32.923Z,68.78
2023-04-18T08:56:01.742Z,68.66
2023-04-18T08:58:32.726Z,67.97
2023-04-18T09:01:03.489Z,67.79
2023-04-18T09:03:40.477Z,67.63
2023-04-18T09:06:14.150Z,67.59
2023-04-18T09:08:44.755Z,68.85
2023-04-18T09:11:26.771Z,69.70
2023-04-18T09:13:59.052Z,70.68
2023-04-18T09:16:31.722Z,71.12
2023-04-18T09:19:13.061Z,71.78
2023-04-18T09:21:47.600Z,71.84
2023-04-18T09:24:24.486Z,72.35
2023-04-18T09:26:56.029Z,72.45
2023-04-18T09:29:47.199Z,72.33
2023-04-18T09:32:29.550Z,72.13
2023-04-18T09:35:04.376Z,72.39
2023-04-18T09:37:34.116Z,72.25
2023-04-18T09:40:18.060Z,72.62
2023-04-18T09:42:46.898Z,71.63
2023-04-18T09:45:15.839Z,71.12
2023-04-18T09:47:46.204Z,71.06
2023-04-18T09:50:16.816Z,71.20
2023-04-18T09:52:47.689Z,71.66
2023-04-18T09:55:18.818Z,70.83
2023-04-18T09:57:49.117Z,70.58
2023-04-18T10:00:24.372Z,70.39
2023-04-18T10:02:58.595Z,70.22
2023-04-18T10:05:29.048Z,69.51
2023-04-18T10:07:58.944Z,70.04
2023-04-18T10:10:27.812Z,70.48
2023-04-18T10:12:57.578Z,70.53
2023-04-18T10:15:29.797Z,70.54
2023-04-18T10:18:05.898Z,70.03
2023-04-18T10:20:36.242Z,69.31
2023-04-18T10:23:30.761Z,68.72
2023-04-18T10:25:59.965Z,67.56
2023-04-18T10:28:28.943Z,67.42
2023-04-18T10:31:04.050Z,66.67
2023-04-18T10:33:41.112Z,66.47
2023-04-18T10:36:20.732Z,66.82
2023-04-18T10:38:52.174Z,66.56
2023-04-18T10:41:26.467Z,65.89
2023-04-18T10:44:13.452Z,64.65
2023-04-18T10:46:43.794Z,63.94
2023-04-18T10:49:18.516Z,63.10
2023-04-18T10:51:48.149Z,62.04
2023-04-18T10:54:23.888Z,60.91
2023-04-18T10:56:56.777Z,61.00
2023-04-18T10:59:27.104Z,59.94
2023-04-18T11:01:58.713Z,58.88
2023-04-18T11:04:29.753Z,58.66
2023-04-18T11:06:59.666Z,58.82
2023-04-18T11:09:28.507Z,58.78
2023-04-18T11:12:09.013Z,58.50
2023-04-18T11:14:41.833Z,58.66
2023-04-18T11:17:29.574Z,57.26
2023-04-18T11:20:06.656Z,56.53
2023-04-18T11:22:45.641Z,57.53
2023-04-18T11:25:14.747Z,57.53
2023-04-18T11:27:45.460Z,54.87
2023-04-18T11:30:15.844Z,53.89
2023-04-18T11:32:45.069Z,53.29
2023-04-18T11:35:17.078Z,52.19
2023-04-18T11:37:46.765Z,52.71
2023-04-18T11:40:15.780Z,52.48
2023-04-18T11:42:44.805Z,53.28
2023-04-18T11:45:14.601Z,54.05
2023-04-18T11:47:44.714Z,54.14
2023-04-18T11:50:15.459Z,54.05
2023-04-18T11:52:44.279Z,53.40
2023-04-18T11:55:18.628Z,53.59
2023-04-18T11:57:55.762Z,55.09
2023-04-18T12:00:34.535Z,54.45
2023-04-18T12:03:06.358Z,53.90
2023-04-18T12:05:39.049Z,53.75
2023-04-18T12:08:09.644Z,53.40
2023-04-18T12:10:39.646Z,53.28
2023-04-18T12:13:10.511Z,53.81
2023-04-18T12:15:40.865Z,53.86
2023-04-18T12:18:09.660Z,53.78
2023-04-18T12:20:46.876Z,53.79
2023-04-18T12:23:31.125Z,53.81
2023-04-18T12:26:04.078Z,53.48
2023-04-18T12:28:33.612Z,53.66
2023-04-18T12:31:02.679Z,54.10
2023-04-18T12:33:32.292Z,54.00
2023-04-18T12:36:02.258Z,53.08
2023-04-18T12:38:31.069Z,52.37
2023-04-18T12:40:59.766Z,52.24
2023-04-18T12:43:28.678Z,50.20
2023-04-18T12:45:57.941Z,49.59
2023-04-18T12:48:26.759Z,50.35
2023-04-18T12:50:55.611Z,50.21
2023-04-18T12:53:25.949Z,50.49
2023-04-18T12:55:54.727Z,49.04
2023-04-18T12:58:23.591Z,48.23
2023-04-18T13:00:52.400Z,47.59
2023-04-18T13:03:21.392Z,48.09
2023-04-18T13:05:50.420Z,49.57
2023-04-18T13:08:19.135Z,49.22
2023-04-18T13:10:49.514Z,49.57
2023-04-18T13:13:18.210Z,49.07
2023-04-18T13:15:47.022Z,49.99
2023-04-18T13:18:15.739Z,48.96
2023-04-18T13:20:44.725Z,48.37
2023-04-18T13:23:13.416Z,46.97
2023-04-18T13:25:42.394Z,46.20
2023-04-18T13:28:12.556Z,45.85
2023-04-18T13:30:41.518Z,44.96
2023-04-18T13:33:10.864Z,45.12
2023-04-18T13:35:39.294Z,44.52
2023-04-18T13:38:08.286Z,44.97
2023-04-18T13:40:38.942Z,44.74
2023-04-18T13:43:07.822Z,44.73
2023-04-18T13:45:38.091Z,44.50
2023-04-18T13:48:07.501Z,44.65
2023-04-18T13:50:36.296Z,43.83
2023-04-18T13:53:05.191Z,44.30
2023-04-18T13:55:33.876Z,44.42
2023-04-18T13:58:02.657Z,44.24
2023-04-18T14:00:31.942Z,44.16
2023-04-18T14:03:02.614Z,44.52
2023-04-18T14:05:33.433Z,44.98
2023-04-18T14:08:04.243Z,45.44
2023-04-18T14:10:33.227Z,45.47
2023-04-18T14:13:02.058Z,44.22
2023-04-18T14:15:33.482Z,43.94
2023-04-18T14:18:03.862Z,43.61
2023-04-18T14:20:34.853Z,44.16
2023-04-18T14:23:03.717Z,44.58
2023-04-18T14:25:32.645Z,44.90
2023-04-18T14:28:09.849Z,44.80
2023-04-18T14:30:40.083Z,44.72
2023-04-18T14:33:10.605Z,44.81
2023-04-18T14:35:40.008Z,45.12
2023-04-18T14:38:08.720Z,45.21
2023-04-18T14:40:37.700Z,45.41
2023-04-18T14:43:06.420Z,45.78
2023-04-18T14:45:35.479Z,46.00
2023-04-18T14:48:04.189Z,45.66
2023-04-18T14:50:36.321Z,44.37
2023-04-18T14:53:05.158Z,44.24
2023-04-18T14:55:33.869Z,43.62
2023-04-18T14:58:03.046Z,43.46
2023-04-18T15:00:32.544Z,43.28
2023-04-18T15:03:01.208Z,42.49
2023-04-18T15:05:30.043Z,42.47
2023-04-18T15:08:00.317Z,43.05
2023-04-18T15:10:29.057Z,43.34
2023-04-18T15:12:57.688Z,43.83
2023-04-18T15:15:26.616Z,43.63
2023-04-18T15:17:55.407Z,42.65
2023-04-18T15:20:24.455Z,41.84
2023-04-18T15:22:53.120Z,41.63
2023-04-18T15:25:23.392Z,41.29
2023-04-18T15:27:52.473Z,41.41
2023-04-18T15:30:21.376Z,41.34
2023-04-18T15:32:50.227Z,41.31
2023-04-18T15:35:19.123Z,41.61
2023-04-18T15:37:49.229Z,42.09
2023-04-18T15:40:18.852Z,42.52
2023-04-18T15:42:49.735Z,42.53
2023-04-18T15:45:19.552Z,42.88
2023-04-18T15:47:48.444Z,43.02
2023-04-18T15:50:17.295Z,43.41
2023-04-18T15:52:46.263Z,43.65
2023-04-18T15:55:15.207Z,43.45
2023-04-18T15:57:43.980Z,43.19
2023-04-18T16:00:16.386Z,42.78
2023-04-18T16:02:46.017Z,42.70
2023-04-18T16:05:15.521Z,42.22
2023-04-18T16:07:44.590Z,41.93
2023-04-18T16:10:15.352Z,42.26
2023-04-18T16:12:44.235Z,42.24
2023-04-18T16:15:14.992Z,41.50
2023-04-18T16:17:43.763Z,41.10
2023-04-18T16:20:12.898Z,40.60
2023-04-18T16:22:41.710Z,40.96
2023-04-18T16:25:11.333Z,41.27
2023-04-18T16:27:40.185Z,41.16
2023-04-18T16:30:10.391Z,40.72
2023-04-18T16:32:40.750Z,40.34
2023-04-18T16:35:10.512Z,40.04
2023-04-18T16:37:39.430Z,40.49
2023-04-18T16:40:10.863Z,40.44
2023-04-18T16:42:40.065Z,40.91
2023-04-18T16:45:09.715Z,41.03
2023-04-18T16:47:39.087Z,41.68
2023-04-18T16:50:10.615Z,41.54
2023-04-18T16:52:39.465Z,42.26
2023-04-18T16:55:08.620Z,42.59
2023-04-18T16:57:37.361Z,42.65
2023-04-18T17:00:07.861Z,42.47
2023-04-18T17:02:36.764Z,42.94
2023-04-18T17:05:05.841Z,42.96
2023-04-18T17:07:36.163Z,43.42
2023-04-18T17:10:05.400Z,43.74
2023-04-18T17:12:34.160Z,43.98
2023-04-18T17:15:03.995Z,44.21
2023-04-18T17:17:33.140Z,44.18
2023-04-18T17:20:01.950Z,44.64
2023-04-18T17:22:30.861Z,44.07
2023-04-18T17:25:02.181Z,43.85
2023-04-18T17:27:31.331Z,44.30
2023-04-18T17:30:00.087Z,44.17
2023-04-18T17:32:29.674Z,44.49
2023-04-18T17:34:58.607Z,45.04
2023-04-18T17:37:27.488Z,44.96
2023-04-18T17:39:58.035Z,44.89
2023-04-18T17:42:28.320Z,45.00
2023-04-18T17:44:56.969Z,45.23
2023-04-18T17:47:25.842Z,45.00
2023-04-18T17:49:54.805Z,45.32
2023-04-18T17:52:23.468Z,45.29
2023-04-18T17:54:52.289Z,45.86
2023-04-18T17:57:21.895Z,46.64
2023-04-18T17:59:52.080Z,47.15
2023-04-18T18:02:23.788Z,46.16
2023-04-18T18:04:53.538Z,44.49
2023-04-18T18:07:22.891Z,44.00
2023-04-18T18:09:51.766Z,43.24
2023-04-18T18:12:20.550Z,43.18
2023-04-18T18:14:49.298Z,43.13
2023-04-18T18:17:19.444Z,42.95
2023-04-18T18:19:48.323Z,43.51
2023-04-18T18:22:17.806Z,43.51
2023-04-18T18:24:46.740Z,43.56
2023-04-18T18:27:15.461Z,44.04
2023-04-18T18:29:44.290Z,43.63
2023-04-18T18:32:12.880Z,44.23
2023-04-18T18:34:43.610Z,44.18
2023-04-18T18:37:12.416Z,44.08
2023-04-18T18:39:42.100Z,44.24
2023-04-18T18:42:10.458Z,44.30
2023-04-18T18:44:39.271Z,44.90
2023-04-18T18:47:08.206Z,44.88
2023-04-18T18:49:37.377Z,45.88
2023-04-18T18:52:07.768Z,46.03
2023-04-18T18:54:36.442Z,46.36
2023-04-18T18:57:05.417Z,47.10
2023-04-18T18:59:34.302Z,47.14
2023-04-18T19:02:03.251Z,47.81
2023-04-18T19:04:32.560Z,47.90
2023-04-18T19:07:01.415Z,48.02
2023-04-18T19:09:31.734Z,48.54
2023-04-18T19:12:01.385Z,49.09
2023-04-18T19:14:29.797Z,49.91
2023-04-18T19:16:58.554Z,50.07
2023-04-18T19:19:27.456Z,50.88
2023-04-18T19:21:56.190Z,50.83
2023-04-18T19:24:25.162Z,49.65
2023-04-18T19:26:56.102Z,49.47
2023-04-18T19:29:24.862Z,48.93
2023-04-18T19:31:53.775Z,47.96
2023-04-18T19:34:22.751Z,47.43
2023-04-18T19:36:51.605Z,46.31
2023-04-18T19:39:20.481Z,44.96
2023-04-18T19:41:49.281Z,44.68
2023-04-18T19:44:19.830Z,44.73
2023-04-18T19:46:48.642Z,44.45
2023-04-18T19:49:17.489Z,44.98
2023-04-18T19:51:46.331Z,44.30
2023-04-18T19:54:15.106Z,44.45
2023-04-18T19:56:44.687Z,44.89
2023-04-18T19:59:13.671Z,44.44
2023-04-18T20:01:44.241Z,44.75
2023-04-18T20:04:13.291Z,44.82
2023-04-18T20:06:42.802Z,45.28
2023-04-18T20:09:17.086Z,46.31
2023-04-18T20:11:48.609Z,48.03
2023-04-18T20:14:18.464Z,49.07
2023-04-18T20:16:49.894Z,49.36
2023-04-18T20:19:19.749Z,49.29
2023-04-18T20:21:48.162Z,48.95
2023-04-18T20:24:17.082Z,48.87
2023-04-18T20:26:45.957Z,48.74
2023-04-18T20:29:15.032Z,49.04
2023-04-18T20:31:44.038Z,49.31
2023-04-18T20:34:14.338Z,48.92
2023-04-18T20:36:43.291Z,48.91
2023-04-18T20:39:13.730Z,48.82
2023-04-18T20:41:46.680Z,48.88
2023-04-18T20:44:15.858Z,49.10
2023-04-18T20:46:44.653Z,48.83
2023-04-18T20:49:15.107Z,49.59
2023-04-18T20:51:44.095Z,49.10
2023-04-18T20:54:13.048Z,48.69
2023-04-18T20:56:42.533Z,48.55
2023-04-18T20:59:11.332Z,49.30
2023-04-18T21:01:40.249Z,49.27
2023-04-18T21:04:09.711Z,49.29
2023-04-18T21:06:39.979Z,49.51
2023-04-18T21:09:09.025Z,49.41
2023-04-18T21:11:37.849Z,49.29
2023-04-18T21:14:06.918Z,49.50
2023-04-18T21:16:37.003Z,49.83
2023-04-18T21:19:05.865Z,49.50
2023-04-18T21:21:34.803Z,49.50
2023-04-18T21:24:08.151Z,49.35
2023-04-18T21:26:36.939Z,50.06
2023-04-18T21:29:05.951Z,50.91
2023-04-18T21:31:36.154Z,51.45
2023-04-18T21:34:07.050Z,51.58
2023-04-18T21:36:36.133Z,51.76
2023-04-18T21:39:06.338Z,51.85
2023-04-18T21:41:35.310Z,51.43
2023-04-18T21:44:04.061Z,51.44
2023-04-18T21:46:33.011Z,52.00
2023-04-18T21:49:01.695Z,51.96
2023-04-18T21:51:30.481Z,52.44
2023-04-18T21:53:59.476Z,53.02
2023-04-18T21:56:29.700Z,53.25
2023-04-18T21:58:58.362Z,53.79
2023-04-18T22:01:27.301Z,53.77
2023-04-18T22:03:56.416Z,54.15
2023-04-18T22:06:27.762Z,54.80
2023-04-18T22:08:56.546Z,55.34
2023-04-18T22:11:25.325Z,55.50
2023-04-18T22:13:56.317Z,55.64
2023-04-18T22:16:25.213Z,56.20
2023-04-18T22:18:54.232Z,56.11
2023-04-18T22:21:23.150Z,56.33
2023-04-18T22:23:51.974Z,56.73
2023-04-18T22:26:20.780Z,56.77
2023-04-18T22:28:50.310Z,57.11
2023-04-18T22:31:20.632Z,56.91
2023-04-18T22:33:49.430Z,57.54
2023-04-18T22:36:18.669Z,58.15
2023-04-18T22:38:47.436Z,58.65
2023-04-18T22:41:16.194Z,58.76
2023-04-18T22:43:45.280Z,58.71
2023-04-18T22:46:14.084Z,58.86
2023-04-18T22:48:45.142Z,58.73
2023-04-18T22:51:15.532Z,58.73
2023-04-18T22:53:44.305Z,58.87
2023-04-18T22:56:13.040Z,59.03
2023-04-18T22:58:41.885Z,58.87
2023-04-18T23:01:10.755Z,58.77
2023-04-18T23:03:39.724Z,58.98
2023-04-18T23:06:10.175Z,58.91
2023-04-18T23:08:39.924Z,58.85
2023-04-18T23:11:08.676Z,59.03
2023-04-18T23:13:37.947Z,59.87
2023-04-18T23:16:07.581Z,60.18
2023-04-18T23:18:36.126Z,60.81
2023-04-18T23:21:04.963Z,61.29
2023-04-18T23:23:35.313Z,61.81
2023-04-18T23:26:04.159Z,62.35
2023-04-18T23:28:32.977Z,61.60
2023-04-18T23:31:01.717Z,61.42
2023-04-18T23:33:30.724Z,61.35
2023-04-18T23:35:59.559Z,61.18
2023-04-18T23:38:28.531Z,60.82
2023-04-18T23:40:58.780Z,61.03
2023-04-18T23:43:27.567Z,61.20
2023-04-18T23:45:56.239Z,61.04
2023-04-18T23:48:25.148Z,61.26
2023-04-18T23:50:54.349Z,61.50
2023-04-18T23:53:23.968Z,61.81
2023-04-18T23:55:52.670Z,61.58
2023-04-18T23:58:23.140Z,61.35
